Time;durP1;ratioP1;P1;durP2;ratioP2;P2;SDS_P1;SDS_P2;PMS_P1;PMS_P2;Temp;Humidity;BMP_temperature;BMP_pressure;BME280_temperature;BME280_humidity;BME280_pressure;Samples;Min_cycle;Max_cycle;Signal;HPM_P1;HPM_P2
2024/01/12 00:00:55;;;;;;;37.20;13.60;;;;;;;4.68;61.87;99572.77;68011;1275;1017993;-61
2024/01/12 00:04:18;;;;;;;36.70;13.30;;;;;;;4.74;61.54;99570.73;67949;1275;1016280;-59
2024/01/12 00:07:20;;;;;;;;;;;;;;;4.79;61.71;99576.84;67995;1275;1016252;-61
2024/01/12 00:10:23;;;;;;;32.50;11.70;;;;;;;4.86;61.47;99573.17;67979;1275;1016103;-61
2024/01/12 00:13:26;;;;;;;33.20;11.70;;;;;;;4.91;60.97;99575.14;67981;1275;1016465;-60
2024/01/12 00:16:29;;;;;;;;;;;;;;;5.06;59.48;99576.99;67989;1275;1016392;-60
2024/01/12 00:19:31;;;;;;;28.70;9.10;;;;;;;5.10;58.05;99576.22;67972;1275;1016394;-60
2024/01/12 00:22:34;;;;;;;;;;;;;;;5.17;58.01;99577.58;67943;1275;1016422;-60
2024/01/12 00:25:36;;;;;;;32.00;10.20;;;;;;;5.25;58.24;99578.92;68010;1275;1016451;-60
2024/01/12 00:28:39;;;;;;;;;;;;;;;5.35;58.43;99580.22;68024;1275;1016348;-60
2024/01/12 00:31:42;;;;;;;29.20;10.50;;;;;;;5.29;58.26;99573.27;67916;1275;1016402;-60
2024/01/12 00:34:44;;;;;;;;;;;;;;;5.32;58.65;99581.15;67983;1275;1016299;-60
2024/01/12 00:37:49;;;;;;;32.20;10.20;;;;;;;5.27;58.56;99593.27;67977;1275;1016399;-59
2024/01/12 00:40:52;;;;;;;32.70;11.00;;;;;;;5.30;58.81;99595.61;67982;1275;1016336;-60
2024/01/12 00:43:54;;;;;;;;;;;;;;;5.37;58.07;99599.05;68011;1275;1016442;-60
2024/01/12 00:46:57;;;;;;;31.10;9.90;;;;;;;5.33;58.18;99596.39;68018;1275;1016309;-60
2024/01/12 00:50:01;;;;;;;;;;;;;;;5.35;58.37;99593.91;67978;1275;1016354;-60
2024/01/12 00:53:04;;;;;;;31.10;10.80;;;;;;;5.45;58.13;99594.67;67952;1275;1016147;-60
2024/01/12 00:56:07;;;;;;;;;;;;;;;5.45;57.92;99594.34;67987;1275;1016344;-60
2024/01/12 00:59:10;;;;;;;33.00;10.30;;;;;;;5.42;58.18;99596.85;68009;1275;1016390;-60
2024/01/12 01:02:13;;;;;;;;;;;;;;;5.46;58.28;99592.05;67986;1275;1016444;-60
2024/01/12 01:05:16;;;;;;;28.70;9.70;;;;;;;5.44;58.08;99596.98;68022;1275;1016411;-61
2024/01/12 01:08:18;;;;;;;;;;;;;;;5.47;57.76;99603.66;67956;1275;1016347;-59
2024/01/12 01:11:21;;;;;;;26.20;8.90;;;;;;;5.54;57.83;99600.51;68012;1275;1016362;-61
2024/01/12 01:14:24;;;;;;;;;;;;;;;5.47;57.93;99599.30;68038;1275;1016331;-62
2024/01/12 01:17:27;;;;;;;31.00;10.10;;;;;;;5.45;57.93;99600.23;68015;1275;1016259;-61
2024/01/12 01:20:31;;;;;;;;;;;;;;;5.38;58.12;99598.88;68009;1275;1016785;-61
2024/01/12 01:23:33;;;;;;;33.80;10.60;;;;;;;5.31;58.25;99599.94;67991;1275;1020680;-60
2024/01/12 01:26:36;;;;;;;28.00;9.10;;;;;;;5.28;58.30;99595.84;67918;1275;1016653;-61
2024/01/12 01:29:39;;;;;;;;;;;;;;;5.24;57.76;99603.41;67948;1275;1016631;-60
2024/01/12 01:32:41;;;;;;;31.90;10.10;;;;;;;5.20;57.76;99608.72;68015;1275;1016371;-61
2024/01/12 01:35:44;;;;;;;28.30;9.10;;;;;;;5.23;57.84;99611.91;68035;1275;1016032;-61
2024/01/12 01:38:46;;;;;;;;;;;;;;;5.18;57.96;99609.10;67981;1275;1016412;-61
2024/01/12 01:41:49;;;;;;;28.30;8.40;;;;;;;5.16;57.39;99601.86;67948;1275;1016246;-61
2024/01/12 01:44:52;;;;;;;28.40;9.50;;;;;;;5.10;57.77;99598.21;68016;1275;1016349;-61
2024/01/12 01:47:54;;;;;;;;;;;;;;;5.19;57.32;99594.50;68018;1275;1015981;-61
2024/01/12 01:50:57;;;;;;;32.20;9.20;;;;;;;5.10;57.38;99594.05;67960;1275;1016381;-61
2024/01/12 01:53:59;;;;;;;29.00;9.20;;;;;;;4.90;57.43;99594.58;67981;1275;1016064;-60
2024/01/12 01:57:02;;;;;;;;;;;;;;;4.79;57.47;99597.98;68006;1275;1016550;-61
2024/01/12 02:00:05;;;;;;;28.80;10.30;;;;;;;4.78;57.84;99599.56;68014;1275;1016422;-61
2024/01/12 02:03:08;;;;;;;27.00;9.30;;;;;;;4.82;57.85;99602.56;67996;1275;1016364;-61
2024/01/12 02:06:10;;;;;;;30.40;10.40;;;;;;;4.85;58.04;99605.10;68039;1275;1016337;-61
2024/01/12 02:09:13;;;;;;;;;;;;;;;4.83;58.21;99613.79;67967;1275;1018891;-61
2024/01/12 02:12:16;;;;;;;29.80;10.40;;;;;;;4.83;58.72;99611.36;67969;1275;1016531;-61
2024/01/12 02:15:18;;;;;;;32.20;10.10;;;;;;;4.85;58.75;99613.94;68012;1275;1016448;-61
2024/01/12 02:18:21;;;;;;;;;;;;;;;4.82;58.85;99615.38;67975;1275;1016466;-61
2024/01/12 02:21:24;;;;;;;34.70;10.60;;;;;;;4.74;58.79;99619.56;67939;1275;1016444;-61
2024/01/12 02:24:26;;;;;;;30.40;9.10;;;;;;;4.66;58.92;99621.14;68034;1275;1016381;-61
2024/01/12 02:27:29;;;;;;;;;;;;;;;4.74;58.44;99623.55;68003;1275;1016575;-61
2024/01/12 02:30:31;;;;;;;28.60;9.70;;;;;;;4.69;57.98;99622.83;67987;1275;1016612;-61
2024/01/12 02:33:34;;;;;;;27.40;8.90;;;;;;;4.50;58.26;99627.94;67963;1275;1016202;-61
2024/01/12 02:36:37;;;;;;;;;;;;;;;4.43;58.24;99628.10;68009;1275;1016238;-61
2024/01/12 02:39:39;;;;;;;29.60;9.10;;;;;;;4.46;57.88;99632.01;68020;1275;1016351;-60
2024/01/12 02:42:42;;;;;;;;;;;;;;;4.45;57.62;99633.07;67992;1275;1016515;-60
2024/01/12 02:45:44;;;;;;;26.50;7.50;;;;;;;4.43;56.80;99630.34;68018;1275;1016406;-61
2024/01/12 02:48:47;;;;;;;;;;;;;;;4.38;56.65;99631.52;68022;1275;1016161;-61
2024/01/12 02:51:50;;;;;;;27.70;8.70;;;;;;;4.26;56.47;99638.70;67951;1275;1016629;-61
2024/01/12 02:54:52;;;;;;;;;;;;;;;4.22;56.65;99649.18;67991;1275;1016126;-61
2024/01/12 02:57:55;;;;;;;29.30;8.20;;;;;;;4.11;56.54;99650.45;68019;1275;1016358;-61
2024/01/12 03:00:58;;;;;;;;;;;;;;;3.96;56.51;99650.59;68011;1275;1016417;-60
2024/01/12 03:04:00;;;;;;;26.50;8.50;;;;;;;3.79;57.68;99649.90;67961;1275;1016017;-61
2024/01/12 03:07:03;;;;;;;;;;;;;;;3.79;57.90;99654.06;67996;1275;1015947;-60
2024/01/12 03:10:06;;;;;;;30.20;8.70;;;;;;;3.74;58.06;99659.33;67977;1275;1016304;-61
2024/01/12 03:13:08;;;;;;;27.60;8.50;;;;;;;3.57;57.96;99658.80;67948;1275;1016343;-61
2024/01/12 03:16:11;;;;;;;29.90;8.10;;;;;;;3.31;58.97;99658.77;67961;1253;1016207;-61
2024/01/12 03:19:13;;;;;;;;;;;;;;;3.17;59.93;99662.82;68009;1275;1016414;-60
2024/01/12 03:22:16;;;;;;;25.20;8.20;;;;;;;3.20;60.09;99662.91;67995;1275;1016202;-61
2024/01/12 03:25:19;;;;;;;;;;;;;;;3.27;59.91;99662.98;67996;1275;1016432;-61
2024/01/12 03:28:21;;;;;;;26.60;7.90;;;;;;;3.35;59.67;99671.31;67976;1275;1016240;-60
2024/01/12 03:31:24;;;;;;;29.70;8.60;;;;;;;3.51;59.21;99672.23;67988;1275;1016223;-60
2024/01/12 03:34:26;;;;;;;;;;;;;;;3.61;58.65;99678.27;68019;1275;1016398;-60
2024/01/12 03:37:29;;;;;;;27.10;7.20;;;;;;;3.65;58.39;99677.34;67918;1275;1016434;-61
2024/01/12 03:40:32;;;;;;;;;;;;;;;3.77;58.20;99678.65;67949;1275;1016971;-61
2024/01/12 03:43:34;;;;;;;26.90;8.80;;;;;;;3.77;58.01;99674.33;67909;1275;1016132;-61
2024/01/12 03:46:37;;;;;;;25.40;7.10;;;;;;;3.72;58.16;99673.21;67981;1275;1016366;-61
2024/01/12 03:49:39;;;;;;;;;;;;;;;3.69;58.19;99673.11;67936;1275;1016190;-61
2024/01/12 03:52:42;;;;;;;29.70;8.30;;;;;;;3.67;58.33;99678.48;67997;1275;1016515;-60
2024/01/12 03:55:45;;;;;;;28.70;7.60;;;;;;;3.69;58.14;99679.17;67969;1275;1016325;-60
2024/01/12 03:58:47;;;;;;;28.30;7.70;;;;;;;3.59;58.07;99675.71;67978;1275;1016365;-61
2024/01/12 04:01:50;;;;;;;23.60;7.90;;;;;;;3.55;58.06;99674.23;68002;1275;1015911;-61
2024/01/12 04:04:53;;;;;;;;;;;;;;;3.43;58.36;99679.12;68014;1275;1016451;-60
2024/01/12 04:07:55;;;;;;;28.50;7.70;;;;;;;3.38;58.26;99683.70;67958;1275;1016525;-61
2024/01/12 04:10:58;;;;;;;;;;;;;;;3.27;58.69;99682.84;67963;1275;1016291;-61
2024/01/12 04:14:01;;;;;;;24.60;8.00;;;;;;;3.24;58.75;99683.59;68009;1275;1016392;-61
2024/01/12 04:17:04;;;;;;;;;;;;;;;3.19;58.89;99683.67;67999;1275;1016462;-61
2024/01/12 04:20:07;;;;;;;25.60;7.50;;;;;;;3.16;58.63;99682.37;68015;1275;1016228;-60
2024/01/12 04:23:09;;;;;;;26.20;7.80;;;;;;;3.17;58.55;99677.85;67960;1275;1016380;-61
2024/01/12 04:26:12;;;;;;;27.50;7.30;;;;;;;3.14;58.35;99680.66;67917;1275;1016256;-61
2024/01/12 04:29:15;;;;;;;;;;;;;;;3.02;58.21;99689.33;68010;1275;1018118;-60
2024/01/12 04:32:17;;;;;;;31.50;7.90;;;;;;;2.86;58.05;99692.19;67986;1275;1016488;-61
2024/01/12 04:35:20;;;;;;;;;;;;;;;2.70;58.58;99704.69;67946;1275;1016457;-61
2024/01/12 04:38:22;;;;;;;27.50;8.60;;;;;;;2.63;58.61;99705.29;67975;1275;1016390;-61
2024/01/12 04:41:25;;;;;;;;;;;;;;;2.54;58.77;99697.67;67972;1275;1016428;-60
2024/01/12 04:44:28;;;;;;;28.00;7.90;;;;;;;2.49;58.64;99698.59;67920;1275;1016953;-61
2024/01/12 04:47:30;;;;;;;;;;;;;;;2.42;58.80;99698.51;67969;1275;1016435;-61
2024/01/12 04:50:33;;;;;;;26.80;7.60;;;;;;;2.39;59.02;99701.15;68013;1275;1016171;-61
2024/01/12 04:53:36;;;;;;;27.00;8.00;;;;;;;2.43;58.75;99706.77;67971;1275;1016477;-61
2024/01/12 04:56:39;;;;;;;;;;;;;;;2.47;58.51;99708.30;67945;1275;1016308;-60
2024/01/12 04:59:41;;;;;;;29.80;8.30;;;;;;;2.60;58.37;99705.86;67950;1275;1016407;-60
2024/01/12 05:02:44;;;;;;;;;;;;;;;2.78;58.29;99706.13;67964;1275;1016409;-61
2024/01/12 05:05:46;;;;;;;24.80;7.40;;;;;;;2.96;57.50;99704.98;67980;1275;1018455;-61
2024/01/12 05:08:50;;;;;;;;;;;;;;;2.97;57.55;99701.16;68002;1275;1016160;-61
2024/01/12 05:11:52;;;;;;;27.90;7.30;;;;;;;2.98;57.64;99707.02;67919;1275;1016468;-60
2024/01/12 05:14:55;;;;;;;;;;;;;;;3.05;57.58;99704.66;68015;1275;1016254;-60
2024/01/12 05:17:58;;;;;;;25.40;7.50;;;;;;;3.14;57.36;99702.95;67959;1275;1016464;-60
2024/01/12 05:21:00;;;;;;;;;;;;;;;3.14;56.77;99707.45;67918;1275;1016582;-61
2024/01/12 05:24:03;;;;;;;26.50;7.00;;;;;;;2.86;56.22;99708.41;67969;1275;1018293;-61
2024/01/12 05:27:05;;;;;;;29.00;7.40;;;;;;;2.55;56.64;99712.84;68007;1275;1016349;-60
2024/01/12 05:30:08;;;;;;;29.00;7.50;;;;;;;2.55;57.21;99718.89;68012;1275;1018852;-60
2024/01/12 05:33:11;;;;;;;29.20;7.20;;;;;;;2.63;57.19;99723.95;67957;1275;1016210;-61
2024/01/12 05:36:13;;;;;;;24.70;7.30;;;;;;;2.63;56.98;99726.20;67971;1275;1018751;-60
2024/01/12 05:39:16;;;;;;;24.60;7.50;;;;;;;2.60;57.14;99733.14;68006;1275;1016470;-61
2024/01/12 05:42:19;;;;;;;27.00;7.60;;;;;;;2.61;57.05;99736.92;67913;1275;1016254;-61
2024/01/12 05:45:21;;;;;;;;;;;;;;;2.66;57.28;99739.80;68023;1275;1016074;-60
2024/01/12 05:48:24;;;;;;;23.50;6.40;;;;;;;2.73;57.42;99740.90;68015;1275;1016336;-60
2024/01/12 05:51:27;;;;;;;;;;;;;;;2.78;57.66;99750.51;67942;1275;1016277;-60
2024/01/12 05:54:29;;;;;;;24.80;6.90;;;;;;;2.80;57.38;99753.58;67983;1275;1015818;-60
2024/01/12 05:57:32;;;;;;;;;;;;;;;2.76;57.24;99755.20;67991;1275;1016362;-60
2024/01/12 06:00:35;;;;;;;24.20;6.40;;;;;;;2.80;57.33;99756.70;67938;1275;1016144;-60
2024/01/12 06:03:37;;;;;;;;;;;;;;;2.92;57.08;99761.19;67933;1275;1016384;-61
2024/01/12 06:06:40;;;;;;;25.10;7.30;;;;;;;2.98;56.98;99761.27;67975;1275;1016457;-60
2024/01/12 06:09:42;;;;;;;;;;;;;;;3.02;56.90;99761.91;68006;1275;1016286;-60
2024/01/12 06:12:46;;;;;;;24.10;6.80;;;;;;;3.04;56.94;99761.35;67956;1275;1016133;-60
2024/01/12 06:15:49;;;;;;;24.90;6.50;;;;;;;3.05;56.91;99764.11;67983;1275;1016421;-60
2024/01/12 06:18:51;;;;;;;;;;;;;;;3.08;57.31;99770.27;67935;1275;1016420;-60
2024/01/12 06:21:54;;;;;;;;;;;;;;;3.20;57.20;99770.44;67863;1275;1016481;-61
2024/01/12 06:24:57;;;;;;;28.50;7.80;;;;;;;3.29;57.04;99768.73;67966;1275;1016669;-61
2024/01/12 06:28:00;;;;;;;29.60;8.90;;;;;;;3.42;56.98;99769.05;67951;1275;1016432;-61
2024/01/12 06:31:03;;;;;;;24.80;7.00;;;;;;;3.58;56.50;99774.49;67970;1275;1016453;-60
2024/01/12 06:34:05;;;;;;;24.40;6.80;;;;;;;3.60;56.06;99776.53;67937;1275;1018127;-61
2024/01/12 06:37:08;;;;;;;24.60;6.80;;;;;;;3.67;55.62;99775.55;67934;1275;1016472;-61
2024/01/12 06:40:10;;;;;;;23.00;7.10;;;;;;;3.49;55.86;99772.73;67986;1275;1016352;-60
2024/01/12 06:43:13;;;;;;;;;;;;;;;3.49;56.04;99769.64;67974;1275;1016089;-61
2024/01/12 06:46:16;;;;;;;26.20;8.60;;;;;;;3.65;55.41;99771.08;67964;1275;1016423;-61
2024/01/12 06:49:18;;;;;;;;;;;;;;;3.63;55.82;99772.14;67991;1275;1016127;-61
2024/01/12 06:52:21;;;;;;;24.20;7.20;;;;;;;3.72;55.61;99780.65;67931;1275;1016446;-62
2024/01/12 06:55:23;;;;;;;21.20;6.30;;;;;;;3.77;55.20;99779.88;67954;1275;1016444;-61
2024/01/12 06:58:26;;;;;;;;;;;;;;;3.80;54.89;99778.95;67932;1275;1016628;-61
2024/01/12 07:01:29;;;;;;;24.70;6.50;;;;;;;3.73;55.14;99775.96;67964;1275;1016439;-61
2024/01/12 07:04:31;;;;;;;;;;;;;;;3.80;55.24;99779.29;67966;1275;1016348;-60
2024/01/12 07:07:34;;;;;;;21.00;5.80;;;;;;;3.84;54.71;99775.42;67958;1275;1016093;-60
2024/01/12 07:10:37;;;;;;;;;;;;;;;3.83;54.29;99774.23;67988;1275;1016430;-61
2024/01/12 07:13:39;;;;;;;23.00;6.50;;;;;;;3.83;54.38;99775.62;67973;1275;1016348;-61
2024/01/12 07:16:42;;;;;;;24.80;6.70;;;;;;;3.71;54.17;99773.23;67936;1275;1016288;-61
2024/01/12 07:19:45;;;;;;;;;;;;;;;3.58;54.24;99773.28;67986;1275;1016359;-60
2024/01/12 07:22:47;;;;;;;23.90;6.90;;;;;;;3.66;54.59;99772.09;67997;1275;1016423;-61
2024/01/12 07:25:50;;;;;;;;;;;;;;;3.69;54.26;99772.59;67921;1275;1016356;-61
2024/01/12 07:28:53;;;;;;;;;;;;;;;3.68;53.92;99768.96;68039;1275;1016348;-61
2024/01/12 07:31:56;;;;;;;25.70;6.70;;;;;;;3.57;53.55;99767.23;68013;1275;1015769;-61
2024/01/12 07:34:59;;;;;;;22.80;6.90;;;;;;;3.40;53.34;99767.52;67978;1275;1016294;-61
2024/01/12 07:38:02;;;;;;;;;;;;;;;3.37;53.52;99769.83;67959;1275;1015980;-61
2024/01/12 07:41:04;;;;;;;24.30;7.10;;;;;;;3.45;53.16;99766.05;67942;1275;1016248;-60
2024/01/12 07:44:07;;;;;;;22.40;6.50;;;;;;;3.53;52.82;99757.11;67958;1275;1016396;-61
2024/01/12 07:47:11;;;;;;;23.60;6.80;;;;;;;3.61;52.66;99759.92;67957;1275;1016300;-61
2024/01/12 07:50:14;;;;;;;24.60;7.00;;;;;;;3.77;52.52;99755.66;68005;1275;1016426;-61
2024/01/12 07:53:17;;;;;;;;;;;;;;;3.84;52.38;99762.61;67946;1275;1016277;-61
2024/01/12 07:56:19;;;;;;;24.40;7.60;;;;;;;3.93;52.08;99767.45;67968;1275;1016362;-61
2024/01/12 07:59:22;;;;;;;;;;;;;;;3.90;52.34;99770.81;67968;1275;1016095;-61
2024/01/12 08:02:24;;;;;;;22.40;7.70;;;;;;;3.88;52.48;99772.41;67947;1275;1016294;-61
2024/01/12 08:05:28;;;;;;;;;;;;;;;3.94;51.95;99773.84;67982;1275;1016336;-61
2024/01/12 08:08:31;;;;;;;22.60;6.60;;;;;;;4.04;51.17;99777.29;67964;1275;1016367;-61
2024/01/12 08:11:33;;;;;;;;;;;;;;;3.99;51.00;99783.44;67975;1275;1016327;-61
2024/01/12 08:14:36;;;;;;;26.20;7.40;;;;;;;4.07;50.72;99785.21;67962;1275;1016415;-61
2024/01/12 08:17:39;;;;;;;;;;;;;;;4.18;50.98;99791.41;67954;1275;1016310;-60
2024/01/12 08:20:42;;;;;;;23.00;6.60;;;;;;;4.44;51.02;99795.91;67969;1275;1016840;-61
2024/01/12 08:23:44;;;;;;;;;;;;;;;4.46;50.32;99802.79;67939;1275;1016474;-61
2024/01/12 08:26:47;;;;;;;26.10;8.40;;;;;;;4.30;49.76;99800.33;67902;1275;1016419;-61
2024/01/12 08:29:50;;;;;;;;;;;;;;;4.27;50.73;99801.08;68006;1275;1016534;-61
2024/01/12 08:32:52;;;;;;;24.10;7.40;;;;;;;4.61;50.76;99798.31;67965;1275;1016242;-61
2024/01/12 08:35:55;;;;;;;;;;;;;;;4.83;50.37;99799.77;67948;1275;1016406;-61
2024/01/12 08:38:57;;;;;;;24.00;7.50;;;;;;;5.08;49.83;99804.75;67967;1275;1016252;-60
2024/01/12 08:42:00;;;;;;;21.70;6.10;;;;;;;5.23;49.55;99811.86;67998;1275;1016445;-61
2024/01/12 08:45:03;;;;;;;;;;;;;;;5.20;49.02;99814.88;67938;1275;1016288;-62
2024/01/12 08:48:05;;;;;;;21.70;6.80;;;;;;;5.37;49.44;99815.70;68022;1275;1016526;-60
2024/01/12 08:51:08;;;;;;;;;;;;;;;5.60;48.77;99808.02;68009;1275;1016225;-61
2024/01/12 08:54:11;;;;;;;23.00;6.80;;;;;;;5.63;48.20;99809.52;67960;1275;1016465;-61
2024/01/12 08:57:13;;;;;;;26.30;6.20;;;;;;;5.75;48.07;99817.19;67977;1275;1016487;-61
2024/01/12 09:00:16;;;;;;;;;;;;;;;5.91;47.78;99814.73;67994;1275;1016638;-61
2024/01/12 09:03:19;;;;;;;25.20;7.50;;;;;;;6.00;47.97;99817.79;67927;1275;1016272;-60
2024/01/12 09:06:23;;;;;;;25.30;7.20;;;;;;;6.24;47.45;99819.77;68018;1275;1016119;-60
2024/01/12 09:09:26;;;;;;;26.00;6.70;;;;;;;6.20;47.90;99820.40;67952;1275;1016706;-61
2024/01/12 09:12:28;;;;;;;24.60;6.50;;;;;;;6.38;47.75;99823.73;67924;1275;1015982;-61
2024/01/12 09:15:31;;;;;;;;;;;;;;;6.50;46.36;99822.89;67955;1275;1016510;-61
2024/01/12 09:18:34;;;;;;;24.40;6.70;;;;;;;6.27;45.73;99819.52;67979;1275;1018515;-61
2024/01/12 09:21:38;;;;;;;;;;;;;;;6.30;46.37;99810.92;67937;1275;1016233;-61
2024/01/12 09:24:41;;;;;;;22.10;6.00;;;;;;;6.38;45.25;99809.31;67943;1275;1016291;-61
2024/01/12 09:27:43;;;;;;;24.30;6.60;;;;;;;6.45;44.59;99806.70;67987;1275;1018141;-61
2024/01/12 09:30:46;;;;;;;23.60;6.60;;;;;;;6.52;44.60;99807.86;68022;1275;1016394;-61
2024/01/12 09:33:49;;;;;;;;;;;;;;;6.33;44.98;99810.67;67941;1275;1016300;-61
2024/01/12 09:36:51;;;;;;;23.80;5.90;;;;;;;5.97;44.60;99814.40;67933;1275;1016134;-61
2024/01/12 09:39:54;;;;;;;;;;;;;;;5.47;45.11;99816.86;68005;1275;1016154;-61
2024/01/12 09:42:57;;;;;;;22.90;6.00;;;;;;;5.07;45.16;99816.21;67964;1254;1016225;-60
2024/01/12 09:45:59;;;;;;;;;;;;;;;5.04;45.50;99806.77;67952;1275;1016129;-61
2024/01/12 09:49:02;;;;;;;20.90;4.90;;;;;;;5.26;44.35;99804.16;67958;1275;1016232;-61
2024/01/12 09:52:07;;;;;;;;;;;;;;;5.37;44.05;99802.34;67944;1275;1016276;-61
2024/01/12 09:55:10;;;;;;;18.60;5.40;;;;;;;5.68;43.99;99797.07;67955;1275;1016083;-61
2024/01/12 09:58:14;;;;;;;22.50;5.50;;;;;;;5.81;43.64;99791.36;67934;1275;1016295;-61
2024/01/12 10:01:17;;;;;;;;;;;;;;;5.89;43.81;99791.51;67973;1275;1016236;-60
2024/01/12 10:04:20;;;;;;;23.70;6.60;;;;;;;5.81;44.09;99797.10;67980;1275;1019037;-61
2024/01/12 10:07:23;;;;;;;22.60;5.80;;;;;;;5.90;44.40;99798.95;67980;1275;1016444;-61
2024/01/12 10:10:25;;;;;;;;;;;;;;;5.93;44.16;99795.05;67953;1275;1016390;-59
2024/01/12 10:13:28;;;;;;;24.30;6.40;;;;;;;5.96;44.38;99796.54;68000;1275;1016271;-61
2024/01/12 10:16:31;;;;;;;24.20;6.70;;;;;;;5.91;44.65;99795.60;67977;1275;1016000;-60
2024/01/12 10:19:34;;;;;;;23.30;6.30;;;;;;;5.78;44.34;99796.29;67918;1275;1016709;-61
2024/01/12 10:22:37;;;;;;;23.90;7.00;;;;;;;5.45;44.28;99794.35;67929;1275;1016638;-61
2024/01/12 10:25:40;;;;;;;;;;;;;;;5.31;44.81;99792.08;67931;1275;1016466;-61
2024/01/12 10:28:44;;;;;;;22.20;5.90;;;;;;;5.50;44.46;99790.40;67960;1275;1017991;-61
2024/01/12 10:31:48;;;;;;;23.20;7.00;;;;;;;5.87;43.58;99788.79;67940;1275;1016423;-60
2024/01/12 10:34:50;;;;;;;24.00;7.10;;;;;;;6.44;43.38;99785.02;68026;1275;1016325;-60
2024/01/12 10:37:53;;;;;;;24.70;7.00;;;;;;;6.86;42.62;99778.20;67950;1275;1016475;-61
2024/01/12 10:40:56;;;;;;;25.10;7.20;;;;;;;7.03;42.44;99770.71;67945;1275;1018800;-61
2024/01/12 10:43:59;;;;;;;23.10;6.40;;;;;;;6.97;41.98;99770.40;67997;1275;1016621;-61
2024/01/12 10:47:02;;;;;;;22.60;6.80;;;;;;;6.90;41.89;99765.90;67949;1275;1016461;-61
2024/01/12 10:50:05;;;;;;;22.40;6.20;;;;;;;7.03;41.95;99754.19;67967;1275;1016061;-61
2024/01/12 10:53:08;;;;;;;;;;;;;;;7.13;41.95;99741.71;67924;1275;1016479;-61
2024/01/12 10:56:11;;;;;;;23.70;6.30;;;;;;;6.91;41.68;99742.07;68000;1275;1016246;-61
2024/01/12 10:59:14;;;;;;;22.00;6.60;;;;;;;6.73;41.37;99739.81;67944;1275;1016535;-61
2024/01/12 11:02:16;;;;;;;;;;;;;;;6.65;42.02;99734.16;68003;1275;1015968;-61
2024/01/12 11:05:20;;;;;;;27.10;7.30;;;;;;;6.46;42.23;99734.38;67995;1275;1016211;-61
2024/01/12 11:08:23;;;;;;;24.00;7.00;;;;;;;6.28;42.33;99730.20;68005;1275;1016008;-61
2024/01/12 11:11:26;;;;;;;22.80;7.50;;;;;;;6.20;42.55;99725.91;67967;1275;1016188;-61
2024/01/12 11:14:28;;;;;;;;;;;;;;;6.30;42.32;99726.50;67990;1275;1016394;-60
2024/01/12 11:17:31;;;;;;;28.70;9.10;;;;;;;6.25;42.06;99729.62;67993;1275;1016549;-61
2024/01/12 11:20:34;;;;;;;26.20;8.70;;;;;;;6.13;42.35;99727.50;67982;1275;1016246;-61
2024/01/12 11:23:36;;;;;;;27.50;7.50;;;;;;;6.10;42.02;99719.97;67968;1275;1016493;-61
2024/01/12 11:26:41;;;;;;;26.40;8.20;;;;;;;6.14;42.43;99714.11;68014;1275;1016346;-61
2024/01/12 11:29:44;;;;;;;23.80;7.40;;;;;;;6.33;41.96;99709.22;67983;1275;1016167;-61
2024/01/12 11:32:47;;;;;;;25.00;7.80;;;;;;;6.18;41.59;99708.61;67980;1275;1015914;-61
2024/01/12 11:35:51;;;;;;;24.60;7.90;;;;;;;6.14;42.09;99695.02;67975;1275;1016441;-61
2024/01/12 11:38:55;;;;;;;27.40;8.70;;;;;;;6.21;42.28;99696.55;67991;1275;1016015;-61
2024/01/12 11:41:58;;;;;;;27.00;8.70;;;;;;;6.29;42.16;99684.32;68001;1275;1019179;-61
2024/01/12 11:45:02;;;;;;;29.80;8.90;;;;;;;6.29;41.78;99682.94;67966;1275;1016319;-61
2024/01/12 11:48:05;;;;;;;28.70;8.70;;;;;;;6.16;41.59;99677.07;67970;1275;1016276;-61
2024/01/12 11:51:07;;;;;;;29.50;9.50;;;;;;;5.95;41.71;99671.91;67982;1274;1016387;-60
2024/01/12 11:54:10;;;;;;;26.60;8.50;;;;;;;5.81;42.06;99675.07;67919;1275;1016341;-61
2024/01/12 11:57:13;;;;;;;27.40;8.20;;;;;;;5.74;41.84;99677.54;67984;1275;1016412;-61
2024/01/12 12:00:15;;;;;;;;;;;;;;;5.65;42.04;99671.17;68011;1275;1016238;-62
2024/01/12 12:03:19;;;;;;;27.00;8.30;;;;;;;5.64;42.02;99677.11;67962;1275;1016438;-61
2024/01/12 12:06:22;;;;;;;26.50;7.40;;;;;;;5.76;42.08;99677.46;68014;1275;1016446;-61
2024/01/12 12:09:24;;;;;;;27.70;8.80;;;;;;;6.05;42.15;99675.99;67940;1275;1016352;-61
2024/01/12 12:12:27;;;;;;;28.70;9.00;;;;;;;6.12;41.52;99678.57;67957;1275;1016456;-61
2024/01/12 12:15:30;;;;;;;;;;;;;;;5.92;41.77;99678.78;68001;1275;1016151;-61
2024/01/12 12:18:33;;;;;;;26.50;7.60;;;;;;;5.82;42.12;99670.73;67963;1275;1016368;-61
2024/01/12 12:21:35;;;;;;;;;;;;;;;5.62;42.03;99656.69;67963;1275;1018195;-62
2024/01/12 12:24:38;;;;;;;30.60;9.70;;;;;;;5.26;42.23;99648.61;68002;1275;1016371;-61
2024/01/12 12:27:41;;;;;;;;;;;;;;;4.92;42.83;99646.34;68017;1275;1016223;-61
2024/01/12 12:30:43;;;;;;;48.00;14.10;;;;;;;4.72;43.14;99637.64;67973;1275;1016084;-61
2024/01/12 12:33:46;;;;;;;;;;;;;;;4.47;43.42;99630.61;68004;1275;1016485;-61
2024/01/12 12:36:50;;;;;;;34.90;10.80;;;;;;;4.30;43.88;99623.55;67969;1275;1016289;-61
2024/01/12 12:39:53;;;;;;;32.90;10.00;;;;;;;4.17;43.57;99619.52;67945;1275;1016430;-61
2024/01/12 12:42:56;;;;;;;33.00;10.50;;;;;;;4.37;43.48;99610.41;67947;1275;1016425;-61
2024/01/12 12:45:59;;;;;;;36.60;12.60;;;;;;;4.89;42.83;99602.74;67945;1275;1016099;-61
2024/01/12 12:49:03;;;;;;;44.90;16.50;;;;;;;5.34;42.53;99597.23;68009;1275;1016470;-60
2024/01/12 12:52:06;;;;;;;43.80;14.60;;;;;;;5.81;42.07;99603.04;67989;1275;1016496;-61
2024/01/12 12:55:09;;;;;;;43.50;15.00;;;;;;;5.98;41.09;99604.66;67973;1275;1016156;-61
2024/01/12 12:58:11;;;;;;;38.20;13.70;;;;;;;6.09;41.20;99602.06;67950;1275;1016057;-61
2024/01/12 13:01:14;;;;;;;32.30;11.00;;;;;;;6.33;40.90;99597.69;67979;1275;1018191;-61
2024/01/12 13:04:17;;;;;;;30.80;11.50;;;;;;;6.71;40.88;99592.30;67917;1275;1016415;-60
2024/01/12 13:07:20;;;;;;;;;;;;;;;6.97;39.89;99591.64;67963;1275;1015851;-61
2024/01/12 13:10:23;;;;;;;28.90;7.80;;;;;;;7.03;39.62;99592.31;67972;1275;1015960;-61
2024/01/12 13:13:25;;;;;;;28.60;9.00;;;;;;;6.58;40.18;99588.04;67932;1275;1016106;-61
2024/01/12 13:16:28;;;;;;;30.90;8.60;;;;;;;6.16;40.93;99581.36;67981;1275;1016055;-61
2024/01/12 13:19:30;;;;;;;32.50;11.00;;;;;;;6.08;41.37;99588.71;67999;1275;1016446;-60
2024/01/12 13:22:34;;;;;;;38.60;12.80;;;;;;;6.10;41.40;99586.24;67963;1275;1016424;-60
2024/01/12 13:25:36;;;;;;;41.70;13.20;;;;;;;6.05;41.59;99586.73;67982;1275;1015769;-60
2024/01/12 13:28:40;;;;;;;37.60;13.10;;;;;;;5.91;41.69;99592.34;68013;1275;1016221;-59
2024/01/12 13:31:42;;;;;;;36.20;12.40;;;;;;;5.71;42.38;99592.58;68004;1275;1016450;-60
2024/01/12 13:34:45;;;;;;;;;;;;;;;5.55;42.71;99594.94;67997;1275;1016445;-61
2024/01/12 13:37:48;;;;;;;38.50;12.60;;;;;;;5.47;42.95;99588.04;67946;1275;1016404;-61
2024/01/12 13:40:50;;;;;;;;;;;;;;;5.63;43.02;99581.52;67993;1275;1016448;-61
2024/01/12 13:43:53;;;;;;;38.40;12.80;;;;;;;5.94;42.87;99584.13;67999;1275;1016476;-61
2024/01/12 13:46:55;;;;;;;39.90;13.30;;;;;;;6.03;42.54;99586.27;68005;1275;1016478;-61
2024/01/12 13:49:58;;;;;;;37.60;13.20;;;;;;;6.14;42.44;99586.66;67964;1275;1016421;-60
2024/01/12 13:53:01;;;;;;;41.90;14.30;;;;;;;6.27;42.47;99582.94;67969;1275;1016326;-61
2024/01/12 13:56:04;;;;;;;37.90;13.00;;;;;;;6.39;42.35;99576.83;67929;1275;1017337;-61
2024/01/12 13:59:07;;;;;;;;;;;;;;;6.32;42.47;99571.86;67978;1275;1018749;-61
2024/01/12 14:02:09;;;;;;;37.60;12.00;;;;;;;6.05;42.70;99564.16;68001;1275;1016461;-60
2024/01/12 14:05:12;;;;;;;37.40;12.70;;;;;;;5.73;43.41;99552.94;67924;1275;1016476;-61
2024/01/12 14:08:14;;;;;;;38.70;13.50;;;;;;;5.49;43.92;99546.34;68004;1275;1016236;-61
2024/01/12 14:11:17;;;;;;;33.90;11.40;;;;;;;5.30;44.48;99544.61;67969;1275;1016466;-61
2024/01/12 14:14:21;;;;;;;37.60;12.50;;;;;;;5.17;45.42;99543.08;67973;1275;1016463;-61
2024/01/12 14:17:23;;;;;;;37.70;12.70;;;;;;;5.03;45.67;99540.15;67993;1275;1016415;-61
2024/01/12 14:20:26;;;;;;;37.70;13.20;;;;;;;4.93;46.32;99536.96;68004;1275;1018345;-61
2024/01/12 14:23:29;;;;;;;;;;;;;;;4.91;46.99;99543.95;67937;1275;1016064;-61
2024/01/12 14:26:31;;;;;;;34.70;10.80;;;;;;;4.85;47.61;99536.65;68000;1275;1016440;-60